aviador You're here:

ETHN Decoded Metar

NIEDERSTETTEN in GERMANY
Report Time2018-07-22 13:20:00
UTC Time2018-07-22 14:14:21
Flight Rules vfr VFR
Wind050° at 03 kt
W.Decomp.*RWY 07: 2.8 kt HW 1.1 kt LCW
W.Rank050° ranks 23
Current wind is below 050° avg. (5.0)
Visibility9999 m
Phenomena:N/A
Clouds:Few 010 Hf
Broken 040 Hf
Overcast 085 Hf
Expected CloudBase > 800 ft AGL from Temp-Dew spread
Ceiling4,000 ft
Temp19°C (ISA +7)
Dew Point17°C (88% RH)
QNH1015 hPa
Density Alt2,579 ft
Elevation1,552 ft
Report Wrong Elevation
Raw Report
METAR ETHN 221320Z 05003KT 9999 FEW010 BKN040 OVC085 19/17 Q1015
BLU=

Extra information for ETHN:More info

Metar Taf Metar & Taf Last 4 Metars F.Rules Stats Wind Profile Meteogram Temp Stats Airport Information Weather charts Add Link Nearby VenuesMetar ALERT Operation Metar Decoded Social comments